Terminal Aerodrome Forecast
Issued by NWS Twin Cities, MN

Home | Current Version | Previous Version | Text Only | Print | Product List | Glossary On
Versions: 1 2 3 4 5 6 7 8 9 10 11 12 13 14 15 16 17 18 19 20 21
000
FTUS43 KMPX 282346
TAFSTC
TAF
KSTC 282346Z 2900/2924 33004KT P6SM VCSH BKN020 OVC030
     FM290600 VRB03KT P6SM VCSH OVC015
     FM290800 VRB03KT 6SM BR OVC010
     FM291000 VRB03KT 4SM BR OVC015
     FM291200 29005KT P6SM BKN008
     FM291600 29009KT P6SM BKN035
     FM292200 27009KT P6SM SCT150=

USA.gov is the U.S. government's official web portal to all federal, state and local government web resources and services.